createdAt,value
2022-09-26T00:04:22.973Z,4.90
2022-09-26T00:09:28.231Z,4.80
2022-09-26T00:14:30.924Z,4.70
2022-09-26T00:19:33.371Z,4.80
2022-09-26T00:24:35.981Z,4.90
2022-09-26T00:29:39.353Z,1.80
2022-09-26T00:34:41.872Z,4.90
2022-09-26T00:39:44.581Z,4.90
2022-09-26T00:44:56.937Z,4.80
2022-09-26T00:50:04.107Z,4.80
2022-09-26T00:55:08.663Z,5.10
2022-09-26T01:00:14.787Z,4.90
2022-09-26T01:05:20.152Z,4.80
2022-09-26T01:10:22.785Z,4.70
2022-09-26T01:15:25.595Z,4.50
2022-09-26T01:21:06.683Z,4.40
2022-09-26T01:26:47.635Z,4.30
2022-09-26T01:32:20.497Z,4.10
2022-09-26T01:37:49.365Z,4.20
2022-09-26T01:43:09.049Z,4.30
2022-09-26T01:48:19.416Z,4.50
2022-09-26T01:53:27.783Z,4.30
2022-09-26T01:58:53.886Z,4.30
2022-09-26T02:04:02.490Z,4.60
2022-09-26T02:09:11.987Z,4.60
2022-09-26T02:14:23.975Z,4.70
2022-09-26T02:19:46.126Z,4.70
2022-09-26T02:24:48.695Z,4.80
2022-09-26T02:29:51.126Z,5.10
2022-09-26T02:34:55.702Z,5.60
2022-09-26T02:40:01.136Z,6.00
2022-09-26T02:45:28.915Z,6.30
2022-09-26T02:51:12.885Z,6.60
2022-09-26T02:56:47.193Z,6.90
2022-09-26T03:02:00.853Z,7.10
2022-09-26T03:07:10.426Z,7.20
2022-09-26T03:12:14.150Z,7.20
2022-09-26T03:17:18.938Z,7.30
2022-09-26T03:22:21.605Z,7.20
2022-09-26T03:27:24.222Z,7.20
2022-09-26T03:32:26.802Z,7.40
2022-09-26T03:37:32.544Z,7.40
2022-09-26T03:42:35.447Z,7.50
2022-09-26T03:47:38.433Z,7.60
2022-09-26T03:52:40.884Z,7.70
2022-09-26T03:57:43.666Z,7.80
2022-09-26T04:02:55.134Z,7.90
2022-09-26T04:08:10.199Z,7.90
2022-09-26T04:13:33.731Z,7.80
2022-09-26T04:18:37.484Z,7.70
2022-09-26T04:23:41.994Z,7.90
2022-09-26T04:28:45.900Z,8.10
2022-09-26T04:33:49.538Z,8.20
2022-09-26T04:38:52.408Z,8.10
2022-09-26T04:43:57.400Z,8.10
2022-09-26T04:49:01.071Z,8.20
2022-09-26T04:54:04.068Z,8.20
2022-09-26T04:59:11.964Z,8.20
2022-09-26T05:04:40.647Z,8.40
2022-09-26T05:09:43.196Z,8.50
2022-09-26T05:14:51.167Z,8.60
2022-09-26T05:19:53.736Z,8.70
2022-09-26T05:25:19.096Z,8.70
2022-09-26T05:30:25.914Z,8.80
2022-09-26T05:35:29.361Z,8.90
2022-09-26T05:40:51.063Z,8.90
2022-09-26T05:46:04.052Z,9.00
2022-09-26T05:51:13.555Z,9.10
2022-09-26T05:56:19.791Z,9.20
2022-09-26T06:01:58.694Z,9.30
2022-09-26T06:07:25.756Z,9.40
2022-09-26T06:12:28.326Z,9.50
2022-09-26T06:17:30.893Z,9.50
2022-09-26T06:22:41.187Z,9.70
2022-09-26T06:27:43.984Z,9.90
2022-09-26T06:32:47.348Z,10.10
2022-09-26T06:38:16.834Z,10.30
2022-09-26T06:43:19.645Z,10.40
2022-09-26T06:48:41.082Z,10.50
2022-09-26T06:54:18.129Z,10.60
2022-09-26T06:59:23.109Z,10.80
2022-09-26T07:04:34.211Z,11.30
2022-09-26T07:09:52.289Z,11.70
2022-09-26T07:15:18.730Z,12.30
2022-09-26T07:20:21.550Z,12.70
2022-09-26T07:25:47.916Z,12.90
2022-09-26T07:30:50.771Z,13.00
2022-09-26T07:36:23.116Z,13.30
2022-09-26T07:41:25.913Z,13.90
2022-09-26T07:46:46.869Z,14.10
2022-09-26T07:51:53.783Z,14.40
2022-09-26T07:56:57.573Z,14.60
2022-09-26T08:02:24.757Z,15.00
2022-09-26T08:07:27.872Z,15.00
2022-09-26T08:12:39.914Z,15.00
2022-09-26T08:17:57.609Z,15.20
2022-09-26T08:23:00.497Z,15.20
2022-09-26T08:28:07.500Z,15.60
2022-09-26T08:33:12.502Z,15.90
2022-09-26T08:38:15.327Z,16.00
2022-09-26T08:43:31.138Z,16.10
2022-09-26T08:49:23.969Z,15.90
2022-09-26T08:54:27.104Z,15.70
2022-09-26T08:59:37.256Z,15.70
2022-09-26T09:04:51.541Z,15.80
2022-09-26T09:10:02.065Z,16.00
2022-09-26T09:15:43.619Z,16.10
2022-09-26T09:21:00.226Z,16.30
2022-09-26T09:32:52.070Z,16.60
2022-09-26T09:38:07.450Z,16.50
2022-09-26T09:43:36.758Z,16.80
2022-09-26T09:48:39.398Z,16.40
2022-09-26T09:54:09.997Z,16.20
2022-09-26T09:59:37.635Z,16.60
2022-09-26T10:04:49.119Z,16.80
2022-09-26T10:09:53.370Z,17.20
2022-09-26T10:15:07.632Z,17.60
2022-09-26T10:20:41.959Z,17.70
2022-09-26T10:25:51.867Z,17.70
2022-09-26T10:31:00.284Z,17.50
2022-09-26T10:36:34.483Z,17.30
2022-09-26T10:41:41.976Z,17.50
2022-09-26T10:46:48.161Z,17.40
2022-09-26T10:52:37.674Z,17.30
2022-09-26T10:57:46.708Z,17.60
2022-09-26T11:02:52.685Z,17.70
2022-09-26T11:07:57.283Z,17.70
2022-09-26T11:13:20.589Z,17.70
2022-09-26T11:18:34.753Z,17.40
2022-09-26T11:23:40.666Z,17.50
2022-09-26T11:29:03.925Z,17.40
2022-09-26T11:34:31.449Z,17.50
2022-09-26T11:39:43.739Z,17.70
2022-09-26T11:44:59.738Z,18.20
2022-09-26T11:50:30.318Z,18.30
2022-09-26T11:56:06.787Z,18.40
2022-09-26T12:01:27.990Z,18.60
2022-09-26T12:06:54.150Z,19.20
2022-09-26T12:12:24.290Z,19.20
2022-09-26T12:17:41.097Z,18.80
2022-09-26T12:23:17.082Z,18.50
2022-09-26T12:28:38.761Z,18.60
2022-09-26T12:34:02.459Z,18.50
2022-09-26T12:39:33.021Z,18.10
2022-09-26T12:45:06.574Z,17.60
2022-09-26T12:50:34.432Z,17.20
2022-09-26T12:55:49.149Z,17.00
2022-09-26T13:01:12.142Z,17.30
2022-09-26T13:06:20.990Z,17.70
2022-09-26T13:11:34.189Z,18.20
2022-09-26T13:17:05.976Z,18.30
2022-09-26T13:22:37.604Z,18.50
2022-09-26T13:27:47.042Z,18.40
2022-09-26T13:33:05.736Z,18.20
2022-09-26T13:38:22.470Z,17.90
2022-09-26T13:43:43.803Z,17.70
2022-09-26T13:49:13.530Z,17.50
2022-09-26T13:54:44.577Z,17.70
2022-09-26T13:59:52.134Z,17.40
2022-09-26T14:05:18.026Z,17.30
2022-09-26T14:10:35.961Z,17.20
2022-09-26T14:15:47.638Z,17.00
2022-09-26T14:21:16.032Z,17.00
2022-09-26T14:26:37.772Z,17.10
2022-09-26T14:31:40.853Z,17.20
2022-09-26T14:36:45.201Z,17.10
2022-09-26T14:41:47.867Z,17.10
2022-09-26T14:46:55.102Z,16.90
2022-09-26T14:52:07.526Z,16.80
2022-09-26T14:57:25.276Z,16.60
2022-09-26T15:02:42.475Z,16.40
2022-09-26T15:07:48.095Z,16.30
2022-09-26T15:12:59.343Z,16.00
2022-09-26T15:18:13.923Z,15.50
2022-09-26T15:23:31.023Z,15.10
2022-09-26T15:28:37.389Z,14.90
2022-09-26T15:33:40.353Z,14.60
2022-09-26T15:38:47.628Z,14.40
2022-09-26T15:43:50.102Z,14.30
2022-09-26T15:48:52.951Z,14.20
2022-09-26T15:54:00.603Z,14.10
2022-09-26T15:59:12.203Z,13.90
2022-09-26T16:04:23.249Z,13.70
2022-09-26T16:09:43.172Z,13.60
2022-09-26T16:14:46.856Z,13.50
2022-09-26T16:19:53.985Z,15.40
2022-09-26T16:25:20.948Z,12.90
2022-09-26T16:30:27.207Z,12.50
2022-09-26T16:35:33.625Z,12.20
2022-09-26T16:40:36.771Z,11.60
2022-09-26T16:46:01.056Z,11.30
2022-09-26T16:51:24.590Z,11.30
2022-09-26T16:56:29.659Z,11.20
2022-09-26T17:02:09.429Z,11.00
2022-09-26T17:07:16.265Z,10.80
2022-09-26T17:12:21.940Z,10.50
2022-09-26T17:17:30.441Z,10.40
2022-09-26T17:22:33.318Z,10.20
2022-09-26T17:27:38.533Z,10.20
2022-09-26T17:32:47.083Z,10.20
2022-09-26T17:37:50.194Z,10.00
2022-09-26T17:42:58.092Z,9.90
2022-09-26T17:48:10.698Z,9.80
2022-09-26T17:53:21.137Z,9.70
2022-09-26T17:58:23.935Z,9.40
2022-09-26T18:03:30.206Z,9.30
2022-09-26T18:08:40.649Z,9.30
2022-09-26T18:13:54.735Z,9.20
2022-09-26T18:18:57.522Z,9.20
2022-09-26T18:24:02.333Z,9.20
2022-09-26T18:29:36.531Z,9.10
2022-09-26T18:34:40.771Z,9.00
2022-09-26T18:39:43.750Z,9.00
2022-09-26T18:44:46.639Z,9.20
2022-09-26T18:49:49.238Z,9.50
2022-09-26T18:55:11.787Z,9.10
2022-09-26T19:00:14.861Z,9.10
2022-09-26T19:05:18.021Z,8.90
2022-09-26T19:10:23.080Z,8.70
2022-09-26T19:15:27.839Z,8.60
2022-09-26T19:20:31.678Z,8.60
2022-09-26T19:25:34.394Z,8.70
2022-09-26T19:30:37.325Z,8.80
2022-09-26T19:35:40.842Z,8.90
2022-09-26T19:40:48.423Z,8.90
2022-09-26T19:45:53.623Z,8.80
2022-09-26T19:50:56.790Z,8.50
2022-09-26T19:56:00.804Z,8.60
2022-09-26T20:01:14.331Z,8.70
2022-09-26T20:06:25.846Z,8.90
2022-09-26T20:11:28.588Z,8.90
2022-09-26T20:16:34.478Z,8.90
2022-09-26T20:21:37.123Z,9.00
2022-09-26T20:26:40.878Z,9.20
2022-09-26T20:31:43.723Z,9.20
2022-09-26T20:36:49.338Z,9.20
2022-09-26T20:41:52.848Z,9.10
2022-09-26T20:47:01.506Z,8.90
2022-09-26T20:52:08.837Z,8.70
2022-09-26T20:57:11.493Z,8.60
2022-09-26T21:02:27.251Z,8.60
2022-09-26T21:07:32.694Z,8.40
2022-09-26T21:12:35.163Z,8.90
2022-09-26T21:17:37.772Z,8.40
2022-09-26T21:22:40.376Z,8.30
2022-09-26T21:27:43.135Z,7.90
2022-09-26T21:32:52.805Z,7.90
2022-09-26T21:37:57.314Z,8.30
2022-09-26T21:43:08.862Z,8.30
2022-09-26T21:48:17.794Z,8.40
2022-09-26T21:53:25.385Z,8.20
2022-09-26T21:58:34.018Z,7.90
2022-09-26T22:03:36.676Z,7.70
2022-09-26T22:08:40.723Z,7.50
2022-09-26T22:19:58.425Z,7.40
2022-09-26T22:25:04.075Z,7.30
2022-09-26T22:30:09.343Z,7.00
2022-09-26T22:35:12.021Z,6.80
2022-09-26T22:40:14.581Z,6.70
2022-09-26T22:45:17.516Z,6.60
2022-09-26T22:50:20.043Z,6.50
2022-09-26T22:55:22.512Z,6.50
2022-09-26T23:00:25.077Z,6.50
2022-09-26T23:05:27.587Z,6.20
2022-09-26T23:10:30.293Z,6.20
2022-09-26T23:15:32.929Z,6.10
2022-09-26T23:20:38.805Z,6.10
2022-09-26T23:25:49.725Z,6.10
2022-09-26T23:30:52.443Z,5.90
2022-09-26T23:35:58.973Z,6.10
2022-09-26T23:41:01.966Z,6.20
2022-09-26T23:46:05.464Z,6.30
2022-09-26T23:51:08.933Z,6.30
2022-09-26T23:56:14.149Z,6.10
